Time;durP1;ratioP1;P1;durP2;ratioP2;P2;SDS_P1;SDS_P2;PMS_P1;PMS_P2;Temp;Humidity;BMP_temperature;BMP_pressure;BME280_temperature;BME280_humidity;BME280_pressure;Samples;Min_cycle;Max_cycle;Signal;HPM_P1;HPM_P2
2021/07/08 00:01:57;;;;;;;9.17;4.63;;;18.80;99.90;;;;;;4998442;28;20485;-75
2021/07/08 00:04:25;;;;;;;9.10;5.60;;;18.80;99.90;;;;;;5011465;28;20465;-77
2021/07/08 00:06:52;;;;;;;10.77;4.60;;;18.80;99.90;;;;;;5002470;28;20460;-76
2021/07/08 00:09:19;;;;;;;5.73;4.87;;;18.70;99.90;;;;;;4994636;28;20472;-76
2021/07/08 00:11:46;;;;;;;8.50;4.90;;;18.70;99.90;;;;;;4973966;28;20868;-77
2021/07/08 00:14:13;;;;;;;7.10;5.10;;;18.80;99.90;;;;;;4995774;28;20805;-75
2021/07/08 00:16:42;;;;;;;7.20;5.27;;;18.80;99.90;;;;;;5001945;28;20819;-77
2021/07/08 00:19:10;;;;;;;5.33;4.77;;;18.80;99.90;;;;;;5007874;28;20444;-75
2021/07/08 00:21:39;;;;;;;6.50;5.20;;;18.80;99.90;;;;;;5007688;28;20503;-75
2021/07/08 00:24:07;;;;;;;7.63;5.07;;;18.90;99.90;;;;;;5001516;28;20543;-75
2021/07/08 00:26:35;;;;;;;5.00;4.50;;;18.80;99.90;;;;;;4993440;28;20896;-76
2021/07/08 00:29:02;;;;;;;5.00;4.37;;;18.80;99.90;;;;;;4998053;28;20444;-76
2021/07/08 00:31:29;;;;;;;13.33;6.00;;;18.90;99.90;;;;;;5004328;28;20474;-76
2021/07/08 00:34:01;;;;;;;9.30;4.80;;;19.00;99.90;;;;;;5003657;28;21000;-76
2021/07/08 00:36:28;;;;;;;7.37;5.30;;;19.00;99.90;;;;;;4994254;28;20447;-76
2021/07/08 00:38:55;;;;;;;10.63;4.90;;;18.90;99.90;;;;;;5001062;28;20531;-76
2021/07/08 00:41:23;;;;;;;5.70;5.10;;;18.90;99.90;;;;;;5000685;28;20487;-75
2021/07/08 00:43:51;;;;;;;9.60;5.43;;;18.90;99.90;;;;;;5000918;28;20472;-76
2021/07/08 00:46:18;;;;;;;5.73;4.40;;;18.90;99.90;;;;;;5006463;28;20915;-75
2021/07/08 00:48:46;;;;;;;9.00;5.00;;;18.90;99.90;;;;;;5004199;28;20487;-75
2021/07/08 00:51:14;;;;;;;10.23;4.93;;;18.90;99.90;;;;;;5005900;28;20452;-75
2021/07/08 00:53:42;;;;;;;23.20;5.90;;;18.80;99.90;;;;;;5003619;28;20645;-75
2021/07/08 00:56:12;;;;;;;7.17;4.77;;;18.70;99.90;;;;;;4999967;28;20457;-75
2021/07/08 00:58:39;;;;;;;5.43;4.80;;;18.60;99.90;;;;;;5002328;28;20456;-75
2021/07/08 01:01:07;;;;;;;5.50;4.70;;;18.50;99.90;;;;;;5003724;28;20487;-75
2021/07/08 01:03:35;;;;;;;6.37;5.40;;;18.60;99.90;;;;;;4997411;28;20463;-76
2021/07/08 01:06:02;;;;;;;7.63;5.10;;;18.60;99.90;;;;;;5006562;28;20449;-76
2021/07/08 01:08:32;;;;;;;7.77;5.57;;;18.70;99.90;;;;;;5001144;28;20460;-74
2021/07/08 01:10:59;;;;;;;16.90;6.03;;;18.70;99.90;;;;;;4992293;28;20448;-76
2021/07/08 01:13:26;;;;;;;8.27;5.20;;;18.70;99.90;;;;;;5006538;28;20452;-76
2021/07/08 01:15:54;;;;;;;7.10;6.13;;;18.80;99.90;;;;;;5011325;28;20455;-75
2021/07/08 01:18:21;;;;;;;5.70;4.77;;;18.90;99.90;;;;;;5005305;28;20448;-76
2021/07/08 01:20:48;;;;;;;7.17;5.33;;;19.00;99.90;;;;;;4996025;28;20439;-76
2021/07/08 01:23:17;;;;;;;7.47;4.70;;;19.10;99.90;;;;;;5009935;28;20785;-76
2021/07/08 01:25:44;;;;;;;8.50;5.67;;;19.10;99.90;;;;;;4998258;28;20478;-76
2021/07/08 01:28:12;;;;;;;6.37;5.50;;;19.10;99.90;;;;;;5003809;28;20804;-75
2021/07/08 01:30:44;;;;;;;6.40;4.80;;;19.20;99.90;;;;;;5002842;28;20846;-76
2021/07/08 01:33:11;;;;;;;5.37;4.70;;;19.20;99.90;;;;;;5004559;28;20554;-76
2021/07/08 01:35:38;;;;;;;7.93;4.80;;;19.10;99.90;;;;;;4999516;28;20476;-75
2021/07/08 01:38:05;;;;;;;8.10;5.87;;;19.10;99.90;;;;;;5007115;28;20953;-76
2021/07/08 01:40:34;;;;;;;7.43;5.80;;;19.10;99.90;;;;;;5005647;28;20456;-76
2021/07/08 01:43:01;;;;;;;6.00;4.80;;;19.10;99.90;;;;;;5002947;28;20490;-76
2021/07/08 01:45:28;;;;;;;8.00;5.70;;;19.10;99.90;;;;;;5002748;28;20790;-77
2021/07/08 01:47:56;;;;;;;10.50;5.30;;;19.00;99.90;;;;;;4995693;28;20459;-76
2021/07/08 01:50:23;;;;;;;8.50;5.60;;;19.00;99.90;;;;;;4992784;28;20458;-76
2021/07/08 01:52:52;;;;;;;8.73;5.73;;;19.00;99.90;;;;;;5001151;28;20449;-77
2021/07/08 01:55:19;;;;;;;6.93;5.27;;;19.00;99.90;;;;;;4996309;28;20487;-77
2021/07/08 01:57:52;;;;;;;7.10;4.90;;;19.00;99.90;;;;;;5003756;28;20554;-76
2021/07/08 02:00:21;;;;;;;5.30;4.53;;;19.10;99.90;;;;;;5003890;28;20479;-77
2021/07/08 02:02:49;;;;;;;7.60;5.07;;;19.10;99.90;;;;;;5003868;28;20487;-76
2021/07/08 02:05:16;;;;;;;5.80;5.30;;;19.00;99.90;;;;;;5001876;28;20476;-77
2021/07/08 02:07:44;;;;;;;7.30;5.73;;;19.00;99.90;;;;;;5005506;28;20835;-77
2021/07/08 02:10:15;;;;;;;9.27;6.17;;;19.00;99.90;;;;;;5004715;28;20456;-77
2021/07/08 02:12:43;;;;;;;6.60;5.30;;;18.90;99.90;;;;;;5003156;28;20444;-76
2021/07/08 02:15:14;;;;;;;9.47;5.90;;;18.90;99.90;;;;;;5004761;28;20543;-76
2021/07/08 02:17:42;;;;;;;6.03;5.43;;;18.90;99.90;;;;;;4996263;28;20456;-76
2021/07/08 02:20:12;;;;;;;10.87;6.60;;;18.80;99.90;;;;;;5010291;28;21055;-78
2021/07/08 02:22:40;;;;;;;10.73;6.50;;;18.70;99.90;;;;;;5002976;28;20479;-77
2021/07/08 02:25:09;;;;;;;8.03;6.70;;;18.80;99.90;;;;;;5002067;28;20469;-78
2021/07/08 02:27:37;;;;;;;7.60;5.80;;;18.70;99.90;;;;;;5007994;28;20459;-77
2021/07/08 02:30:08;;;;;;;7.50;5.70;;;18.70;99.90;;;;;;4998104;28;20503;-78
2021/07/08 02:32:37;;;;;;;9.10;6.40;;;18.70;99.90;;;;;;5001467;28;20853;-79
2021/07/08 02:35:06;;;;;;;9.73;6.60;;;18.70;99.90;;;;;;5005995;28;20475;-78
2021/07/08 02:37:40;;;;;;;12.97;7.13;;;18.70;99.90;;;;;;5007748;28;20834;-76
2021/07/08 02:40:10;;;;;;;8.23;6.47;;;18.80;99.90;;;;;;5008029;28;20454;-78
2021/07/08 02:42:38;;;;;;;7.70;6.50;;;18.80;99.90;;;;;;5000239;28;20485;-76
2021/07/08 02:45:07;;;;;;;13.90;7.00;;;18.70;99.90;;;;;;5004888;28;20468;-77
2021/07/08 02:47:36;;;;;;;9.93;7.00;;;18.70;99.90;;;;;;5006284;28;20453;-76
2021/07/08 02:50:05;;;;;;;8.80;6.47;;;18.70;99.90;;;;;;5001608;28;20453;-76
2021/07/08 02:52:32;;;;;;;10.23;8.57;;;18.70;99.90;;;;;;5006990;28;20512;-79
2021/07/08 02:55:00;;;;;;;13.33;8.40;;;18.70;99.90;;;;;;4997419;28;20468;-75
2021/07/08 02:57:27;;;;;;;9.80;7.80;;;18.70;99.90;;;;;;5002749;28;20440;-77
2021/07/08 02:59:54;;;;;;;8.40;7.50;;;18.70;99.90;;;;;;5006956;28;21018;-77
2021/07/08 03:02:21;;;;;;;8.33;7.57;;;18.70;99.90;;;;;;5006846;28;20480;-76
2021/07/08 03:04:50;;;;;;;9.13;7.60;;;18.70;99.90;;;;;;4998631;28;20460;-77
2021/07/08 03:07:17;;;;;;;9.50;7.87;;;18.70;99.90;;;;;;5000419;28;20457;-77
2021/07/08 03:09:45;;;;;;;12.50;7.40;;;18.70;99.90;;;;;;5004463;28;20455;-78
2021/07/08 03:12:12;;;;;;;12.73;8.30;;;18.70;99.90;;;;;;5002514;28;20436;-77
2021/07/08 03:14:39;;;;;;;10.73;9.07;;;18.70;99.90;;;;;;5009316;28;20472;-77
2021/07/08 03:17:06;;;;;;;9.80;7.97;;;18.70;99.90;;;;;;5001404;28;20456;-75
2021/07/08 03:19:33;;;;;;;9.37;8.47;;;18.80;99.90;;;;;;5014004;28;20447;-76
2021/07/08 03:22:02;;;;;;;9.20;7.93;;;18.90;99.90;;;;;;5006671;28;20515;-76
2021/07/08 03:24:29;;;;;;;8.20;7.40;;;19.00;99.90;;;;;;5009295;28;20468;-78
2021/07/08 03:26:57;;;;;;;14.23;8.67;;;19.10;99.90;;;;;;5010744;28;20548;-77
2021/07/08 03:29:25;;;;;;;9.50;8.47;;;19.10;99.90;;;;;;5008429;28;20459;-77
2021/07/08 03:31:53;;;;;;;9.00;8.10;;;19.10;99.90;;;;;;5002331;28;20452;-75
2021/07/08 03:34:20;;;;;;;14.63;8.60;;;19.10;99.90;;;;;;5013906;28;20471;-75
2021/07/08 03:36:48;;;;;;;12.30;9.60;;;19.10;99.90;;;;;;5012274;28;20454;-76
2021/07/08 03:39:17;;;;;;;13.87;8.47;;;19.10;99.90;;;;;;5015631;28;20481;-75
2021/07/08 03:41:45;;;;;;;13.30;9.03;;;19.10;99.90;;;;;;5013397;28;20479;-77
2021/07/08 03:44:12;;;;;;;11.33;8.20;;;19.20;99.90;;;;;;5004684;28;20472;-76
2021/07/08 03:46:39;;;;;;;8.97;8.00;;;19.10;99.90;;;;;;5013945;28;20813;-75
2021/07/08 03:49:06;;;;;;;11.87;8.90;;;19.20;99.90;;;;;;5004181;28;20453;-76
2021/07/08 03:51:34;;;;;;;13.30;9.10;;;19.20;99.90;;;;;;5006214;28;20457;-75
2021/07/08 03:54:01;;;;;;;10.77;8.80;;;19.20;99.90;;;;;;5005028;28;20471;-76
2021/07/08 03:56:36;;;;;;;16.63;8.83;;;19.20;99.90;;;;;;5009717;28;20515;-76
2021/07/08 03:59:03;;;;;;;12.73;8.90;;;19.20;99.90;;;;;;5013719;28;20451;-76
2021/07/08 04:01:30;;;;;;;13.87;10.63;;;19.20;99.90;;;;;;5007533;28;20456;-75
2021/07/08 04:03:57;;;;;;;12.23;10.60;;;19.30;99.90;;;;;;5004365;28;20484;-77
2021/07/08 04:06:25;;;;;;;16.30;12.97;;;19.40;99.90;;;;;;5009010;28;20466;-78
2021/07/08 04:08:52;;;;;;;11.80;10.60;;;19.40;99.90;;;;;;5009090;28;20456;-77
2021/07/08 04:11:19;;;;;;;16.67;12.67;;;19.50;99.90;;;;;;5002951;28;20456;-76
2021/07/08 04:13:48;;;;;;;18.07;16.17;;;19.60;99.90;;;;;;5012802;28;20555;-76
2021/07/08 04:16:15;;;;;;;14.90;13.37;;;19.50;99.90;;;;;;5004375;28;20464;-77
2021/07/08 04:18:42;;;;;;;18.63;16.83;;;19.60;99.90;;;;;;5004892;28;20445;-77
2021/07/08 04:21:10;;;;;;;15.73;14.13;;;19.70;99.90;;;;;;4997326;28;20467;-77
2021/07/08 04:23:38;;;;;;;13.07;11.80;;;19.70;99.90;;;;;;4999374;28;20801;-78
2021/07/08 04:26:05;;;;;;;23.83;14.93;;;19.80;99.90;;;;;;5009758;28;20448;-77
2021/07/08 04:28:33;;;;;;;17.20;15.47;;;19.80;99.90;;;;;;5002608;28;20457;-77
2021/07/08 04:31:01;;;;;;;17.23;15.53;;;19.80;99.90;;;;;;4996026;28;20823;-78
2021/07/08 04:33:30;;;;;;;16.30;14.47;;;19.80;99.90;;;;;;5006365;28;20444;-78
2021/07/08 04:35:57;;;;;;;14.93;13.40;;;19.70;99.90;;;;;;5011164;28;20793;-77
2021/07/08 04:38:26;;;;;;;14.90;13.37;;;19.70;99.90;;;;;;4991454;28;20448;-74
2021/07/08 04:40:53;;;;;;;16.43;13.50;;;19.70;99.90;;;;;;4996201;28;20452;-75
2021/07/08 04:43:26;;;;;;;21.87;15.47;;;19.70;99.90;;;;;;5004479;28;20495;-75
2021/07/08 04:45:53;;;;;;;13.17;11.73;;;19.70;99.90;;;;;;5005805;28;20460;-75
2021/07/08 04:48:22;;;;;;;10.90;9.70;;;19.80;99.90;;;;;;4998419;28;20455;-76
2021/07/08 04:50:49;;;;;;;11.07;9.97;;;20.00;99.90;;;;;;5006361;28;20445;-76
2021/07/08 04:53:16;;;;;;;11.27;10.10;;;20.10;99.90;;;;;;4993923;28;20920;-75
2021/07/08 04:55:45;;;;;;;11.37;10.07;;;20.20;99.90;;;;;;4994824;28;20495;-76
2021/07/08 04:58:12;;;;;;;10.90;9.80;;;20.40;99.90;;;;;;4995723;28;20452;-76
2021/07/08 05:00:39;;;;;;;15.23;10.13;;;20.40;99.90;;;;;;5007362;28;20459;-77
2021/07/08 05:03:08;;;;;;;11.77;10.53;;;20.40;99.90;;;;;;4998735;28;21340;-76
2021/07/08 05:05:37;;;;;;;11.43;8.17;;;20.50;99.90;;;;;;4999570;28;20478;-76
2021/07/08 05:08:06;;;;;;;12.87;9.90;;;20.70;99.90;;;;;;4996904;28;20463;-76
2021/07/08 05:10:33;;;;;;;12.90;10.60;;;20.60;99.90;;;;;;4996517;28;20452;-77
2021/07/08 05:13:00;;;;;;;8.43;7.60;;;20.60;99.90;;;;;;5004683;28;20448;-76
2021/07/08 05:15:28;;;;;;;10.43;9.27;;;20.60;99.90;;;;;;4993882;28;20845;-76
2021/07/08 05:17:55;;;;;;;11.17;9.40;;;20.80;99.90;;;;;;4996282;28;20837;-75
2021/07/08 05:20:22;;;;;;;16.80;11.00;;;20.80;99.90;;;;;;4998856;28;20452;-77
2021/07/08 05:22:56;;;;;;;16.00;10.50;;;20.90;99.90;;;;;;5001731;28;21003;-76
2021/07/08 05:25:24;;;;;;;12.03;8.57;;;20.90;99.90;;;;;;4993586;28;20813;-74
2021/07/08 05:27:51;;;;;;;17.67;10.17;;;20.90;99.90;;;;;;5009934;28;20446;-75
2021/07/08 05:30:18;;;;;;;12.93;8.63;;;21.00;99.90;;;;;;5002659;28;20447;-76
2021/07/08 05:32:46;;;;;;;9.40;8.47;;;21.10;99.90;;;;;;5003436;28;20446;-74
2021/07/08 05:35:16;;;;;;;12.20;9.40;;;21.20;99.90;;;;;;5001336;28;20468;-74
2021/07/08 05:37:43;;;;;;;13.63;8.70;;;21.30;99.90;;;;;;4999964;28;20447;-73
2021/07/08 05:40:12;;;;;;;9.60;8.17;;;21.40;99.90;;;;;;5002626;28;20448;-76
2021/07/08 05:42:39;;;;;;;10.60;9.50;;;21.50;99.90;;;;;;4993015;28;20491;-76
2021/07/08 05:45:09;;;;;;;10.10;7.33;;;21.60;99.90;;;;;;5002749;28;20466;-74
2021/07/08 05:47:37;;;;;;;12.83;8.20;;;21.60;99.90;;;;;;5001192;28;20446;-75
2021/07/08 05:50:06;;;;;;;11.20;7.50;;;21.80;99.90;;;;;;5000519;28;20452;-76
2021/07/08 05:52:33;;;;;;;12.97;9.50;;;21.90;99.90;;;;;;5003678;28;20911;-75
2021/07/08 05:55:00;;;;;;;10.03;7.67;;;22.00;99.90;;;;;;5003524;28;20542;-75
2021/07/08 05:57:29;;;;;;;11.43;8.87;;;22.20;99.90;;;;;;4999243;28;20453;-75
2021/07/08 05:59:56;;;;;;;10.70;7.03;;;22.40;99.90;;;;;;4996801;28;20563;-76
2021/07/08 06:02:23;;;;;;;11.33;8.37;;;22.50;99.90;;;;;;4998610;28;20484;-75
2021/07/08 06:04:52;;;;;;;9.30;7.03;;;22.50;99.90;;;;;;5000199;28;20473;-70
2021/07/08 06:07:19;;;;;;;9.40;8.40;;;22.20;99.90;;;;;;4998958;28;20462;-71
2021/07/08 06:09:47;;;;;;;11.23;8.33;;;22.30;99.90;;;;;;4990100;28;20579;-73
2021/07/08 06:12:14;;;;;;;9.53;8.47;;;22.20;99.90;;;;;;5005053;28;20443;-70
2021/07/08 06:14:42;;;;;;;10.47;8.47;;;22.00;99.90;;;;;;5003215;28;20464;-70
2021/07/08 06:17:10;;;;;;;9.70;7.40;;;22.00;99.90;;;;;;5008427;28;20443;-73
2021/07/08 06:19:37;;;;;;;9.03;7.10;;;22.10;99.90;;;;;;5011150;28;21039;-70
2021/07/08 06:22:04;;;;;;;9.67;6.43;;;22.30;99.90;;;;;;5000868;28;20460;-69
2021/07/08 06:24:31;;;;;;;8.77;7.27;;;22.40;99.90;;;;;;4991990;28;20986;-69
2021/07/08 06:26:59;;;;;;;8.53;6.73;;;22.50;99.90;;;;;;5003623;28;20456;-69
2021/07/08 06:29:26;;;;;;;10.63;7.47;;;22.60;99.90;;;;;;4998012;28;20456;-68
2021/07/08 06:31:55;;;;;;;12.33;8.17;;;22.80;99.90;;;;;;4999448;28;20448;-69
2021/07/08 06:34:22;;;;;;;11.53;7.43;;;22.80;99.90;;;;;;5003295;28;20802;-69
2021/07/08 06:36:49;;;;;;;8.73;6.30;;;23.00;99.90;;;;;;4997301;28;20463;-69
2021/07/08 06:39:16;;;;;;;6.60;5.87;;;23.40;99.90;;;;;;5004452;28;20460;-69
2021/07/08 06:41:43;;;;;;;7.10;5.37;;;23.80;99.90;;;;;;4998490;28;20820;-69
2021/07/08 06:44:10;;;;;;;7.27;5.77;;;24.00;99.90;;;;;;4994585;28;20500;-70
2021/07/08 06:46:49;;;;;;;7.20;5.50;;;24.20;99.90;;;;;;5001929;28;20460;-69
2021/07/08 06:49:17;;;;;;;6.77;4.37;;;24.80;99.90;;;;;;4998080;28;20480;-69
2021/07/08 06:51:45;;;;;;;6.43;4.20;;;25.60;98.70;;;;;;4999205;28;20449;-70
2021/07/08 06:54:12;;;;;;;5.23;3.87;;;26.90;97.50;;;;;;4995284;28;20483;-70
2021/07/08 06:56:39;;;;;;;5.70;3.87;;;28.10;94.20;;;;;;5000259;28;20447;-70
2021/07/08 06:59:06;;;;;;;6.70;4.47;;;28.50;91.60;;;;;;4996516;28;20830;-71
2021/07/08 07:01:33;;;;;;;7.40;5.17;;;28.10;91.50;;;;;;4996022;28;20455;-70
2021/07/08 07:04:00;;;;;;;11.20;5.13;;;27.70;92.50;;;;;;4998853;28;20498;-70
2021/07/08 07:06:29;;;;;;;6.67;4.70;;;27.40;94.20;;;;;;4991781;28;20463;-70
2021/07/08 07:08:56;;;;;;;5.50;4.40;;;27.20;94.40;;;;;;4992440;28;20467;-70
2021/07/08 07:11:23;;;;;;;8.53;4.03;;;27.00;95.60;;;;;;4996416;28;20456;-70
2021/07/08 07:13:51;;;;;;;5.00;3.50;;;27.20;95.10;;;;;;4994742;28;20469;-71
2021/07/08 07:16:19;;;;;;;9.20;4.57;;;27.90;92.80;;;;;;4991960;28;20511;-71
2021/07/08 07:18:48;;;;;;;4.90;3.50;;;28.70;90.90;;;;;;4996222;28;20453;-71
2021/07/08 07:21:15;;;;;;;6.43;4.67;;;28.90;91.20;;;;;;5004076;28;20452;-71
2021/07/08 07:23:44;;;;;;;6.70;4.63;;;29.20;91.50;;;;;;4995145;28;20495;-71
2021/07/08 07:26:12;;;;;;;7.20;4.57;;;29.00;90.20;;;;;;4997981;28;20457;-71
2021/07/08 07:28:39;;;;;;;6.53;3.80;;;28.80;90.80;;;;;;4997850;28;20478;-71
2021/07/08 07:31:07;;;;;;;5.50;3.90;;;28.90;90.90;;;;;;4995641;28;20448;-70
2021/07/08 07:33:34;;;;;;;6.57;4.40;;;29.30;90.90;;;;;;4994492;28;20814;-71
2021/07/08 07:36:01;;;;;;;9.10;3.87;;;29.50;90.80;;;;;;4995076;28;20444;-71
2021/07/08 07:38:29;;;;;;;7.17;3.50;;;29.70;90.50;;;;;;4995017;28;20788;-72
2021/07/08 07:40:58;;;;;;;8.53;4.50;;;29.90;90.80;;;;;;4998348;28;20441;-72
2021/07/08 07:43:25;;;;;;;7.43;4.10;;;30.30;88.40;;;;;;4997303;28;20499;-72
2021/07/08 07:45:52;;;;;;;8.00;3.83;;;30.40;86.50;;;;;;4995264;28;20444;-71
2021/07/08 07:48:19;;;;;;;4.20;3.80;;;30.70;87.80;;;;;;4997863;28;20447;-72
2021/07/08 07:50:46;;;;;;;7.33;2.90;;;31.40;83.30;;;;;;5000703;28;20927;-71
2021/07/08 07:53:14;;;;;;;7.90;3.57;;;31.30;82.40;;;;;;4993545;28;20440;-72
2021/07/08 07:55:41;;;;;;;5.87;3.60;;;31.20;81.20;;;;;;4999790;28;20474;-72
2021/07/08 07:58:10;;;;;;;4.63;3.73;;;30.90;81.00;;;;;;5002052;28;20477;-72
2021/07/08 08:00:37;;;;;;;4.47;4.00;;;30.80;82.20;;;;;;4989055;28;20460;-72
2021/07/08 08:03:06;;;;;;;7.87;3.40;;;30.70;82.80;;;;;;4997849;28;20483;-73
2021/07/08 08:08:30;;;;;;;7.27;3.00;;;31.60;80.70;;;;;;4991362;28;20847;-71
2021/07/08 08:10:59;;;;;;;6.50;3.43;;;31.50;78.60;;;;;;4991536;28;20452;-71
2021/07/08 08:13:28;;;;;;;4.43;3.50;;;31.50;77.80;;;;;;5006295;28;20822;-71
2021/07/08 08:15:55;;;;;;;6.73;3.47;;;31.60;78.40;;;;;;4995206;28;20934;-71
2021/07/08 08:18:24;;;;;;;6.27;2.80;;;31.90;79.20;;;;;;4992940;28;20455;-71
2021/07/08 08:20:55;;;;;;;6.73;2.47;;;32.30;74.80;;;;;;5002066;28;20514;-71
2021/07/08 08:23:22;;;;;;;2.60;1.97;;;32.30;70.30;;;;;;5005823;28;21000;-72
2021/07/08 08:25:49;;;;;;;4.20;2.10;;;32.60;70.20;;;;;;5001620;28;20958;-72
2021/07/08 08:28:16;;;;;;;3.90;2.10;;;32.70;68.00;;;;;;5011984;28;20456;-70
2021/07/08 08:30:47;;;;;;;3.43;2.37;;;32.90;68.50;;;;;;4994524;28;20480;-71
2021/07/08 08:33:15;;;;;;;4.90;3.13;;;33.50;69.50;;;;;;4993841;28;20455;-70
2021/07/08 08:35:42;;;;;;;4.23;2.50;;;33.90;70.00;;;;;;5000954;28;20469;-71
2021/07/08 08:38:09;;;;;;;4.70;2.80;;;34.10;69.30;;;;;;4993515;28;20455;-71
2021/07/08 08:40:36;;;;;;;8.93;3.30;;;34.30;67.80;;;;;;5002301;28;20457;-71
2021/07/08 08:43:04;;;;;;;7.10;2.83;;;35.30;66.80;;;;;;4994749;28;20460;-71
2021/07/08 08:45:31;;;;;;;12.40;3.03;;;35.20;65.00;;;;;;4997201;28;20478;-71
2021/07/08 08:48:02;;;;;;;4.00;3.10;;;35.40;65.70;;;;;;4992373;28;20471;-70
2021/07/08 08:50:35;;;;;;;6.77;2.70;;;35.40;62.30;;;;;;4995329;28;20899;-73
2021/07/08 08:53:02;;;;;;;3.90;2.77;;;35.50;61.70;;;;;;4994752;28;20452;-71
2021/07/08 08:55:29;;;;;;;5.87;3.00;;;35.80;60.50;;;;;;5000391;28;20472;-71
2021/07/08 08:57:56;;;;;;;6.83;2.80;;;36.20;59.40;;;;;;5005860;28;20463;-71
2021/07/08 09:00:44;;;;;;;5.80;2.67;;;36.30;58.10;;;;;;4986116;28;20918;-71
2021/07/08 09:03:15;;;;;;;3.80;3.20;;;36.70;59.40;;;;;;4991820;28;20449;-71
2021/07/08 09:05:44;;;;;;;6.13;3.50;;;36.70;58.30;;;;;;4995828;28;20472;-71
2021/07/08 09:08:18;;;;;;;6.80;3.60;;;36.10;58.00;;;;;;4993147;28;20947;-70
2021/07/08 09:10:51;;;;;;;5.00;2.40;;;35.70;58.30;;;;;;4976091;28;20801;-71
2021/07/08 09:13:18;;;;;;;4.33;2.90;;;35.30;59.60;;;;;;4993873;28;20449;-70
2021/07/08 09:15:46;;;;;;;5.23;3.67;;;35.10;59.80;;;;;;5000070;28;20479;-70
2021/07/08 09:18:15;;;;;;;5.07;3.13;;;34.20;60.70;;;;;;4995990;28;20898;-70
2021/07/08 09:20:43;;;;;;;5.37;3.40;;;34.40;61.30;;;;;;4995434;28;20935;-70
2021/07/08 09:23:16;;;;;;;6.83;4.10;;;34.40;61.70;;;;;;4994016;28;20461;-69
2021/07/08 09:25:44;;;;;;;5.00;3.43;;;34.10;62.30;;;;;;4988140;28;20950;-69
2021/07/08 09:28:14;;;;;;;4.73;3.53;;;34.60;62.90;;;;;;5000052;28;20942;-70
2021/07/08 09:30:42;;;;;;;5.60;3.57;;;34.80;61.40;;;;;;4993925;28;20962;-70
2021/07/08 09:33:32;;;;;;;10.47;3.70;;;34.50;60.90;;;;;;4992214;28;20452;-71
2021/07/08 09:36:11;;;;;;;7.70;2.97;;;34.30;61.40;;;;;;4992482;28;20459;-70
2021/07/08 09:38:40;;;;;;;9.60;3.07;;;33.80;62.90;;;;;;4992656;28;20449;-70
2021/07/08 09:41:10;;;;;;;9.80;3.17;;;33.20;62.60;;;;;;4995371;28;20487;-70
2021/07/08 09:43:40;;;;;;;8.20;3.53;;;33.00;64.80;;;;;;4992356;28;20487;-71
2021/07/08 09:46:08;;;;;;;5.43;3.87;;;33.20;65.20;;;;;;4994619;28;20459;-70
2021/07/08 09:48:37;;;;;;;7.50;3.33;;;33.50;64.10;;;;;;4992834;28;20456;-71
2021/07/08 09:51:04;;;;;;;10.17;3.13;;;33.50;63.80;;;;;;4992768;28;20813;-71
2021/07/08 09:53:32;;;;;;;6.10;3.23;;;33.40;62.80;;;;;;4992233;28;20807;-70
2021/07/08 09:56:07;;;;;;;4.80;3.20;;;32.30;64.00;;;;;;4996672;28;20463;-70
2021/07/08 09:58:35;;;;;;;4.93;3.37;;;32.10;65.80;;;;;;4994584;28;20802;-70
2021/07/08 10:01:13;;;;;;;5.47;3.20;;;32.80;65.00;;;;;;4996948;28;20458;-70
2021/07/08 10:03:44;;;;;;;5.10;3.47;;;33.70;62.60;;;;;;4993792;28;20488;-70
2021/07/08 10:06:11;;;;;;;6.40;3.23;;;33.10;61.40;;;;;;4992607;28;20456;-70
2021/07/08 10:08:40;;;;;;;5.23;3.10;;;33.40;62.40;;;;;;4996112;28;20923;-70
2021/07/08 10:11:07;;;;;;;10.33;3.40;;;34.30;61.30;;;;;;4991933;28;20457;-70
2021/07/08 10:13:36;;;;;;;10.80;3.50;;;34.50;61.50;;;;;;4994644;28;20812;-71
2021/07/08 10:16:05;;;;;;;6.80;3.00;;;35.50;60.20;;;;;;4997566;28;20441;-70
2021/07/08 10:18:37;;;;;;;5.97;3.20;;;35.60;57.80;;;;;;4992782;28;20444;-71
2021/07/08 10:21:09;;;;;;;4.60;2.90;;;35.10;58.10;;;;;;4990267;28;20822;-70
2021/07/08 10:23:38;;;;;;;3.70;2.97;;;35.20;59.60;;;;;;4993949;28;20448;-71
2021/07/08 10:26:06;;;;;;;6.30;2.67;;;35.60;59.10;;;;;;4993724;28;20449;-70
2021/07/08 10:28:36;;;;;;;5.00;2.67;;;34.80;59.70;;;;;;5002229;28;20474;-71
2021/07/08 10:31:04;;;;;;;4.33;2.53;;;34.80;59.10;;;;;;4996134;28;20536;-69
2021/07/08 10:33:31;;;;;;;5.00;2.80;;;35.00;58.50;;;;;;4992160;28;20459;-70
2021/07/08 10:35:59;;;;;;;4.70;3.70;;;35.30;59.10;;;;;;4994683;28;20813;-70
2021/07/08 10:38:38;;;;;;;4.97;3.60;;;34.60;59.90;;;;;;4995657;28;20843;-70
2021/07/08 10:41:46;;;;;;;3.50;3.20;;;34.20;60.90;;;;;;4979662;28;20491;-68
2021/07/08 10:44:42;;;;;;;4.93;2.80;;;33.60;62.80;;;;;;4931256;29;20509;-70
2021/07/08 10:47:38;;;;;;;9.70;3.20;;;33.00;62.40;;;;;;4990830;28;20843;-70
2021/07/08 10:50:09;;;;;;;6.33;2.47;;;31.90;62.80;;;;;;4992409;28;20444;-69
2021/07/08 10:52:42;;;;;;;6.90;3.27;;;31.50;61.20;;;;;;4993432;28;20811;-70
2021/07/08 10:55:12;;;;;;;2.67;2.37;;;31.10;62.40;;;;;;4993492;28;20464;-70
2021/07/08 10:57:40;;;;;;;3.00;2.00;;;31.00;63.00;;;;;;5006336;28;20474;-70
2021/07/08 11:00:10;;;;;;;3.90;2.37;;;31.30;62.30;;;;;;4998924;28;20926;-71
2021/07/08 11:02:47;;;;;;;5.73;3.20;;;31.10;61.80;;;;;;4995525;28;20441;-69
2021/07/08 11:05:14;;;;;;;3.93;2.60;;;30.90;62.40;;;;;;4998292;28;20495;-71
2021/07/08 11:07:49;;;;;;;5.30;3.00;;;30.70;62.30;;;;;;4998359;28;20480;-70
2021/07/08 11:10:33;;;;;;;6.13;2.67;;;30.60;64.60;;;;;;4995289;28;20915;-70
2021/07/08 11:13:27;;;;;;;4.10;2.90;;;31.00;68.50;;;;;;4996392;28;20468;-70
2021/07/08 11:15:54;;;;;;;5.37;2.70;;;31.70;69.10;;;;;;4991994;28;20819;-69
2021/07/08 11:18:33;;;;;;;5.00;3.07;;;31.90;68.60;;;;;;4996350;28;20444;-69
2021/07/08 11:21:00;;;;;;;8.40;3.27;;;32.30;68.00;;;;;;4995478;28;20954;-69
2021/07/08 11:23:29;;;;;;;4.30;2.43;;;32.10;67.20;;;;;;4994741;28;20445;-69
2021/07/08 11:25:58;;;;;;;7.70;3.20;;;31.60;68.00;;;;;;4995595;28;20494;-68
2021/07/08 11:28:30;;;;;;;6.13;2.80;;;31.30;69.30;;;;;;4995056;28;20483;-68
2021/07/08 11:31:01;;;;;;;5.50;2.90;;;31.40;70.30;;;;;;4995545;28;20499;-69
2021/07/08 11:33:30;;;;;;;5.80;3.00;;;31.60;70.10;;;;;;4993676;28;20453;-70
2021/07/08 11:36:00;;;;;;;5.27;3.23;;;31.60;67.80;;;;;;4995673;28;20467;-69
2021/07/08 11:38:31;;;;;;;6.27;3.07;;;31.70;68.60;;;;;;4995979;28;20564;-70
2021/07/08 11:41:01;;;;;;;5.50;2.87;;;31.90;68.40;;;;;;4999804;28;20547;-70
2021/07/08 11:43:31;;;;;;;3.63;2.73;;;31.90;67.40;;;;;;4994328;28;20540;-71
2021/07/08 11:46:05;;;;;;;4.73;2.83;;;31.50;68.90;;;;;;4994994;28;20903;-70
2021/07/08 11:48:34;;;;;;;3.80;3.00;;;31.20;68.50;;;;;;4995494;28;20452;-68
2021/07/08 11:51:12;;;;;;;4.73;3.30;;;30.90;68.40;;;;;;4993245;28;20440;-69
2021/07/08 11:53:40;;;;;;;4.57;2.90;;;30.70;69.10;;;;;;4994372;28;20949;-69
2021/07/08 11:56:09;;;;;;;5.30;3.40;;;30.40;69.50;;;;;;4997906;28;20473;-69
2021/07/08 11:58:37;;;;;;;3.40;3.10;;;30.50;69.90;;;;;;5002941;28;20446;-69
2021/07/08 12:01:06;;;;;;;4.40;3.17;;;30.70;71.00;;;;;;4997011;28;20499;-69
2021/07/08 12:03:37;;;;;;;7.70;3.10;;;31.00;69.70;;;;;;4984108;28;20470;-69
2021/07/08 12:06:07;;;;;;;7.43;3.23;;;30.90;69.00;;;;;;4992899;28;20492;-68
2021/07/08 12:08:36;;;;;;;6.03;2.57;;;31.10;69.50;;;;;;4998991;28;20441;-69
2021/07/08 12:11:16;;;;;;;3.90;3.43;;;31.40;68.30;;;;;;4993865;28;20441;-69
2021/07/08 12:13:52;;;;;;;5.60;3.00;;;31.30;68.70;;;;;;4992292;28;20452;-69
2021/07/08 12:16:23;;;;;;;7.00;3.63;;;31.00;67.30;;;;;;4996832;28;20454;-69
2021/07/08 12:18:51;;;;;;;7.30;3.17;;;30.60;67.40;;;;;;4992601;28;20453;-70
2021/07/08 12:21:30;;;;;;;7.80;3.17;;;30.30;68.70;;;;;;4996107;28;20457;-71
2021/07/08 12:23:58;;;;;;;4.03;2.40;;;30.40;69.50;;;;;;4992112;28;20487;-69
2021/07/08 12:26:28;;;;;;;5.13;3.00;;;30.70;70.30;;;;;;4999656;28;20997;-69
2021/07/08 12:29:13;;;;;;;5.50;2.97;;;30.70;68.50;;;;;;5000725;28;20940;-70
2021/07/08 12:31:49;;;;;;;6.53;3.53;;;30.20;69.40;;;;;;5003835;28;20774;-70
2021/07/08 12:34:16;;;;;;;4.73;3.07;;;30.00;71.90;;;;;;4994175;28;20464;-70
2021/07/08 12:36:44;;;;;;;5.20;3.27;;;29.60;73.70;;;;;;4994555;28;20807;-69
2021/07/08 12:39:15;;;;;;;8.90;3.37;;;29.40;74.40;;;;;;4997629;28;20444;-69
2021/07/08 12:41:46;;;;;;;9.13;3.90;;;29.10;74.60;;;;;;4999472;28;20452;-69
2021/07/08 12:44:16;;;;;;;6.07;3.33;;;29.00;76.10;;;;;;4997516;28;20464;-69
2021/07/08 12:46:44;;;;;;;6.40;3.33;;;29.00;75.40;;;;;;4994449;28;20449;-70
2021/07/08 12:49:11;;;;;;;4.73;3.53;;;28.70;76.60;;;;;;4993485;28;20962;-70
2021/07/08 12:51:39;;;;;;;9.67;3.37;;;28.70;76.70;;;;;;4998455;28;20954;-69
2021/07/08 12:54:06;;;;;;;6.13;3.70;;;29.00;76.80;;;;;;4993716;28;20967;-69
2021/07/08 12:56:34;;;;;;;4.90;3.10;;;29.10;76.20;;;;;;5002372;28;20448;-68